Terminal Aerodrome Forecast
Issued by NWS

Home | Current Version | Previous Version | Text Only | Print | Product List | Glossary On
Versions: 1 2 3 4 5 6 7 8 9 10 11 12 13
000
FTUS42 KMLB 312333
TAFLEE
TAF
KLEE 312333Z 0100/0124 18005KT P6SM VCTS SCT025CB BKN035 OVC080
      TEMPO 0100/0101 VRB15G28KT 1SM TSRA BKN025CB OVC035
     FM010200 16004KT P6SM SCT020 BKN250
     FM010400 17002KT P6SM FEW030 BKN250
     FM011400 17005KT P6SM FEW015 SCT150 BKN250
     FM011900 19005KT P6SM VCTS SCT035CB SCT150=

USA.gov is the U.S. government's official web portal to all federal, state and local government web resources and services.